Victoria, TX (77901)

2:00 PM CDT on August 28, 2016 (GMT -0500)
Inwood Terrace | | Change Station
Active Advisory: Flood Warning

Elev 128 ft 28.83 °N, 96.97 °W | Updated 27 seconds ago

Mostly Cloudy
Mostly Cloudy
90.9 °F
Feels Like 97 °F
N
2.2
Wind Variable Wind from NE

Today
High -- | Low -- °F
--% Chance of Precip.
Yesterday
High -- | Low -- °F
Precip. -- in
Pressure 29.96 in
Visibility 10.0 miles
Clouds Mostly Cloudy 6000 ft
Heat Index 97 °F
Dew Point 70 °F
Humidity 51%
Rainfall 0.00 in
Snow Depth Not available.
7:04 AM 7:53 PM
Waning Crescent, 14% visible
METAR KVCT 281851Z 05006KT 10SM BKN060 31/23 A2996 RMK AO2 SLP143 T03110233
Pressure 29.96 in
Visibility 10.0 miles
Clouds Mostly Cloudy 6000 ft
Heat Index 97 °F
Dew Point 70 °F
Humidity 51%
Rainfall 0.00 in
Snow Depth Not available.
7:04 AM 7:53 PM
Waning Crescent, 14% visible
METAR KVCT 281851Z 05006KT 10SM BKN060 31/23 A2996 RMK AO2 SLP143 T03110233

10-Day Weather Forecast

Almanac

Astronomy

Aug. 28, 2016 Rise Set
Actual Time
Civil Twilight
Nautical Twilight
Astronomical Twilight
Moon
Length of Visible Light
Length of Day
Tomorrow will be .
, % of the Moon is Illuminated

Today's Extremes

State Highs State Lows

Community

WunderPhotos

Upload Photos

1,935,647 photos uploaded!

WunderBlog® & News

Nearby

Air Quality

  Air Quality AQ Index Pollutant
Not available.

Snow Depth

Station Depth Elevation

Earthquake Activity

City Distance Mag. Time & Date
Minimum magnitude displayed is 2.5.

Coastal Water Temperatures

Place Temperature

Stations

Nearby Weather Stations

Station Location Temp. Windchill Dew Point Humidity Wind Precip. Elev Updated Type
                   

Watches & Warnings

Flood Warning
Issued: 9:44 AM CDT Aug. 28, 2016 – National Weather Service

The Flood Warning continues for the Guadalupe River near Bloomington.
* Until Monday evening... or until the warning is cancelled.
* At 9:00 am Sunday the stage was 22.0 feet.
* Minor flooding is occurring and minor flooding is forecast.
* Flood stage is 20.0 feet.
* Forecast: the river will continue to fall to below flood stage by
after midnight on Monday.
* At 20.0 feet minor lowland flooding occurs, with the flow reaching
the right flood plain near the invista plant near Bloomington.
Downstream above Highway 35, the flow escapes into the left flood
plain cutting off the lowest homes.


Below are the latest river stages and stage forecasts:

                      fld latest forecast 6 am lst
location stg stg day time Mon Tue Wed Thu Fri

Guadalupe River
Bloomington 20 22.0 sun 09 am 19.7 18.7 18.1 17.9 17.8


Lat... Lon 2869 9704 2869 9698 2867 9695 2857 9688
      2845 9680 2843 9685


Kw